Time,TemperatureF,DewpointF,PressureIn,WindDirection,WindDirectionDegrees,WindSpeedMPH,WindSpeedGustMPH,Humidity,HourlyPrecipIn,Conditions,Clouds,dailyrainin,SoftwareType,DateUTC
2013-06-06 00:02:00,63.8,62.0,29.85,NNW,338,0.0,0.0,94,0.00,RA,,0.00,WeatherDisplay:10.37,2013-06-06 05:02:00,
2013-06-06 00:07:00,63.7,61.9,29.85,NNW,339,0.0,0.0,94,0.00,RA,,0.00,WeatherDisplay:10.37,2013-06-06 05:07:00,
2013-06-06 00:12:00,63.7,61.9,29.85,NNW,339,0.0,0.0,94,0.00,CLR,,0.00,WeatherDisplay:10.37,2013-06-06 05:12:00,
2013-06-06 00:17:00,63.7,61.9,29.85,NNW,339,0.0,0.0,94,0.00,CLR,,0.00,WeatherDisplay:10.37,2013-06-06 05:17:00,
2013-06-06 00:22:00,63.6,61.8,29.85,NNW,339,0.0,0.0,94,0.00,CLR,,0.00,WeatherDisplay:10.37,2013-06-06 05:22:00,
2013-06-06 00:27:00,63.6,61.8,29.85,NNW,339,0.0,0.0,94,0.00,CLR,,0.00,WeatherDisplay:10.37,2013-06-06 05:27:00,
2013-06-06 00:32:00,63.5,62.0,29.85,NNW,338,0.0,0.0,95,0.00,CLR,,0.00,WeatherDisplay:10.37,2013-06-06 05:32:00,
2013-06-06 00:37:00,63.5,62.0,29.85,NNW,339,0.0,0.0,95,0.00,CLR,,0.00,WeatherDisplay:10.37,2013-06-06 05:37:00,
2013-06-06 00:42:00,63.4,61.9,29.85,NNW,338,0.0,0.1,95,0.00,CLR,,0.00,WeatherDisplay:10.37,2013-06-06 05:42:00,
2013-06-06 00:47:00,63.3,61.8,29.85,NNW,339,0.0,0.0,95,0.00,CLR,,0.00,WeatherDisplay:10.37,2013-06-06 05:47:00,
2013-06-06 00:52:00,63.3,61.8,29.85,NNW,338,1.2,0.0,95,0.00,CLR,,0.00,WeatherDisplay:10.37,2013-06-06 05:52:00,
2013-06-06 00:57:00,63.2,61.7,29.85,NNW,339,1.2,1.2,95,0.00,CLR,,0.00,WeatherDisplay:10.37,2013-06-06 05:57:00,
2013-06-06 01:02:00,63.2,61.7,29.85,NNW,339,0.0,0.0,95,0.00,CLR,,0.00,WeatherDisplay:10.37,2013-06-06 06:02:00,
2013-06-06 01:07:00,63.2,61.7,29.84,NNW,338,0.0,0.0,95,0.00,CLR,,0.00,WeatherDisplay:10.37,2013-06-06 06:07:00,
2013-06-06 01:12:00,63.1,61.6,29.84,NNW,338,0.0,0.0,95,0.00,CLR,,0.00,WeatherDisplay:10.37,2013-06-06 06:12:00,
2013-06-06 01:17:00,63.1,61.6,29.84,NNW,339,0.0,0.0,95,0.00,CLR,,0.00,WeatherDisplay:10.37,2013-06-06 06:17:00,
2013-06-06 01:22:00,63.1,61.9,29.83,NNW,339,0.0,0.0,96,0.00,CLR,,0.00,WeatherDisplay:10.37,2013-06-06 06:22:00,
2013-06-06 01:27:00,63.0,61.8,29.83,NNW,339,1.2,0.0,96,0.00,CLR,,0.00,WeatherDisplay:10.37,2013-06-06 06:27:00,
2013-06-06 01:32:00,63.0,61.8,29.84,NNW,339,0.0,0.0,96,0.00,CLR,,0.00,WeatherDisplay:10.37,2013-06-06 06:32:00,
2013-06-06 01:37:00,63.0,61.8,29.83,NNW,338,2.3,2.3,96,0.00,CLR,,0.00,WeatherDisplay:10.37,2013-06-06 06:37:00,
2013-06-06 01:42:00,62.9,61.7,29.83,NNW,339,1.2,0.0,96,0.00,CLR,,0.00,WeatherDisplay:10.37,2013-06-06 06:42:00,
2013-06-06 01:47:00,62.9,61.7,29.83,NNW,339,0.0,0.0,96,0.00,CLR,,0.00,WeatherDisplay:10.37,2013-06-06 06:47:00,
2013-06-06 01:52:00,62.8,61.6,29.83,NNW,338,0.0,0.0,96,0.00,CLR,,0.00,WeatherDisplay:10.37,2013-06-06 06:52:00,
2013-06-06 01:57:00,62.8,61.6,29.83,NNW,339,0.0,0.0,96,0.00,CLR,,0.00,WeatherDisplay:10.37,2013-06-06 06:57:00,
2013-06-06 02:02:00,62.7,61.5,29.83,NNW,339,2.3,2.3,96,0.00,CLR,,0.00,WeatherDisplay:10.37,2013-06-06 07:02:00,
2013-06-06 02:07:00,62.7,61.5,29.83,NNW,339,0.0,0.0,96,0.00,CLR,,0.00,WeatherDisplay:10.37,2013-06-06 07:07:00,
2013-06-06 02:12:00,62.6,61.4,29.83,NNW,339,0.0,0.0,96,0.00,CLR,,0.00,WeatherDisplay:10.37,2013-06-06 07:12:00,
2013-06-06 02:17:00,62.6,61.4,29.83,NNW,339,0.0,0.0,96,0.00,CLR,,0.00,WeatherDisplay:10.37,2013-06-06 07:17:00,
2013-06-06 02:22:00,62.6,61.4,29.82,NNW,338,0.0,0.0,96,0.00,CLR,,0.00,WeatherDisplay:10.37,2013-06-06 07:22:00,
2013-06-06 02:27:00,62.5,61.3,29.82,NNW,339,3.5,3.5,96,0.00,CLR,,0.00,WeatherDisplay:10.37,2013-06-06 07:27:00,
2013-06-06 02:32:00,62.5,61.3,29.82,NNW,339,0.0,0.0,96,0.00,CLR,,0.00,WeatherDisplay:10.37,2013-06-06 07:32:00,
2013-06-06 02:37:00,62.4,61.2,29.82,NNW,339,0.0,0.0,96,0.00,CLR,,0.00,WeatherDisplay:10.37,2013-06-06 07:37:00,
2013-06-06 02:42:00,62.3,61.1,29.82,NNW,339,2.3,2.3,96,0.00,CLR,,0.00,WeatherDisplay:10.37,2013-06-06 07:42:00,
2013-06-06 02:47:00,62.3,61.1,29.82,NNW,339,0.0,0.0,96,0.00,CLR,,0.00,WeatherDisplay:10.37,2013-06-06 07:47:00,
2013-06-06 02:52:00,62.2,61.0,29.82,NNW,339,0.0,0.0,96,0.00,CLR,,0.00,WeatherDisplay:10.37,2013-06-06 07:52:00,
2013-06-06 02:57:00,62.2,61.0,29.82,NNW,338,0.0,0.0,96,0.00,CLR,,0.00,WeatherDisplay:10.37,2013-06-06 07:57:00,
2013-06-06 03:03:00,62.1,60.9,29.81,NNW,338,0.0,0.0,96,0.00,CLR,,0.00,WeatherDisplay:10.37,2013-06-06 08:03:00,
2013-06-06 03:08:00,62.0,60.8,29.82,NNW,339,1.2,0.0,96,0.00,CLR,,0.00,WeatherDisplay:10.37,2013-06-06 08:08:00,
2013-06-06 03:13:00,62.0,60.8,29.82,NNW,338,0.0,0.1,96,0.00,CLR,,0.00,WeatherDisplay:10.37,2013-06-06 08:13:00,
2013-06-06 03:18:00,61.9,60.7,29.82,NNW,339,0.0,0.0,96,0.00,CLR,,0.00,WeatherDisplay:10.37,2013-06-06 08:18:00,
2013-06-06 03:23:00,61.8,60.6,29.82,NNW,338,0.0,0.3,96,0.00,CLR,,0.00,WeatherDisplay:10.37,2013-06-06 08:23:00,
2013-06-06 03:28:00,61.8,60.6,29.82,NNW,338,0.0,0.0,96,0.00,CLR,,0.00,WeatherDisplay:10.37,2013-06-06 08:28:00,
2013-06-06 03:33:00,61.7,60.5,29.82,NNW,339,1.2,0.0,96,0.00,CLR,,0.00,WeatherDisplay:10.37,2013-06-06 08:33:00,
2013-06-06 03:38:00,61.6,60.4,29.82,NNW,339,1.0,1.0,96,0.00,CLR,,0.00,WeatherDisplay:10.37,2013-06-06 08:38:00,
2013-06-06 03:43:00,61.5,60.3,29.82,NNW,339,0.0,0.0,96,0.00,CLR,,0.00,WeatherDisplay:10.37,2013-06-06 08:43:00,
2013-06-06 03:48:00,61.3,60.2,29.82,NNW,339,1.2,1.2,96,0.00,CLR,,0.00,WeatherDisplay:10.37,2013-06-06 08:48:00,
2013-06-06 03:53:00,61.3,60.2,29.82,NNW,338,2.3,0.0,96,0.00,CLR,,0.00,WeatherDisplay:10.37,2013-06-06 08:53:00,
2013-06-06 03:58:00,61.2,60.1,29.82,NNW,338,0.0,0.0,96,0.00,CLR,,0.00,WeatherDisplay:10.37,2013-06-06 08:58:00,
2013-06-06 04:03:00,61.1,60.0,29.82,NNW,339,1.2,1.2,96,0.00,CLR,,0.00,WeatherDisplay:10.37,2013-06-06 09:03:00,
2013-06-06 04:08:00,60.9,59.8,29.82,NNW,339,1.0,0.0,96,0.00,CLR,,0.00,WeatherDisplay:10.37,2013-06-06 09:08:00,
2013-06-06 04:13:00,60.7,59.6,29.82,NNW,339,1.2,0.0,96,0.00,CLR,,0.00,WeatherDisplay:10.37,2013-06-06 09:13:00,
2013-06-06 04:18:00,60.5,59.4,29.82,NNW,339,0.0,0.8,96,0.00,CLR,,0.00,WeatherDisplay:10.37,2013-06-06 09:18:00,
2013-06-06 04:23:00,60.3,58.9,29.82,NNW,339,0.0,0.3,95,0.00,CLR,,0.00,WeatherDisplay:10.37,2013-06-06 09:23:00,
2013-06-06 04:28:00,60.2,58.8,29.82,NNW,338,1.2,1.2,95,0.00,CLR,,0.00,WeatherDisplay:10.37,2013-06-06 09:28:00,
2013-06-06 04:33:00,60.0,58.6,29.83,NNW,339,2.3,2.3,95,0.00,CLR,,0.00,WeatherDisplay:10.37,2013-06-06 09:33:00,
2013-06-06 04:38:00,60.0,58.6,29.83,NNW,339,0.0,0.0,95,0.00,CLR,,0.00,WeatherDisplay:10.37,2013-06-06 09:38:00,
2013-06-06 04:43:00,59.9,58.5,29.83,NNW,338,0.0,0.0,95,0.00,CLR,,0.00,WeatherDisplay:10.37,2013-06-06 09:43:00,
2013-06-06 04:48:00,59.8,58.4,29.83,NNW,338,0.0,0.0,95,0.00,CLR,,0.00,WeatherDisplay:10.37,2013-06-06 09:48:00,
2013-06-06 04:53:00,59.8,58.4,29.83,NNW,339,0.0,0.0,95,0.00,CLR,,0.00,WeatherDisplay:10.37,2013-06-06 09:53:00,
2013-06-06 04:58:00,59.8,58.4,29.83,NNW,338,0.0,0.0,95,0.00,CLR,,0.00,WeatherDisplay:10.37,2013-06-06 09:58:00,
2013-06-06 05:03:00,59.6,58.2,29.83,NNW,339,0.0,0.0,95,0.00,CLR,,0.00,WeatherDisplay:10.37,2013-06-06 10:03:00,
2013-06-06 05:08:00,59.5,58.1,29.83,NNW,339,0.0,0.0,95,0.00,CLR,,0.00,WeatherDisplay:10.37,2013-06-06 10:08:00,
2013-06-06 05:13:00,59.4,57.7,29.83,NNW,338,0.0,0.0,94,0.00,CLR,,0.00,WeatherDisplay:10.37,2013-06-06 10:13:00,
2013-06-06 05:18:00,59.3,57.6,29.82,NNW,339,0.0,0.0,94,0.00,CLR,,0.00,WeatherDisplay:10.37,2013-06-06 10:18:00,
2013-06-06 05:23:00,59.0,57.3,29.82,NNW,339,0.0,0.0,94,0.00,CLR,,0.00,WeatherDisplay:10.37,2013-06-06 10:23:00,
2013-06-06 05:28:00,59.0,57.3,29.82,NNW,338,1.2,1.2,94,0.00,CLR,,0.00,WeatherDisplay:10.37,2013-06-06 10:28:00,
2013-06-06 05:33:00,59.0,57.3,29.82,NNW,339,0.0,0.0,94,0.00,CLR,,0.00,WeatherDisplay:10.37,2013-06-06 10:33:00,
2013-06-06 05:38:00,58.9,57.2,29.82,NNW,339,0.0,0.0,94,0.00,CLR,,0.00,WeatherDisplay:10.37,2013-06-06 10:38:00,
2013-06-06 05:43:00,58.6,56.9,29.82,NNW,338,3.5,3.5,94,0.00,CLR,,0.00,WeatherDisplay:10.37,2013-06-06 10:43:00,
2013-06-06 05:48:00,58.4,56.7,29.83,NNW,339,0.0,0.0,94,0.00,CLR,,0.00,WeatherDisplay:10.37,2013-06-06 10:48:00,
2013-06-06 05:53:00,58.2,56.5,29.83,NNW,338,0.0,0.0,94,0.00,CLR,,0.00,WeatherDisplay:10.37,2013-06-06 10:53:00,
2013-06-06 05:58:00,58.0,56.3,29.83,NNW,339,0.0,0.0,94,0.00,CLR,,0.00,WeatherDisplay:10.37,2013-06-06 10:58:00,
2013-06-06 06:03:00,57.7,56.0,29.83,NNW,338,0.0,0.0,94,0.00,CLR,,0.00,WeatherDisplay:10.37,2013-06-06 11:03:00,
2013-06-06 06:08:00,57.6,56.2,29.83,NNW,338,0.0,0.0,95,0.00,CLR,,0.00,WeatherDisplay:10.37,2013-06-06 11:08:00,
2013-06-06 06:13:00,57.5,56.1,29.83,NNW,339,0.0,0.0,95,0.00,CLR,,0.00,WeatherDisplay:10.37,2013-06-06 11:13:00,
2013-06-06 06:18:00,57.4,56.0,29.83,NNW,338,0.0,0.0,95,0.00,CLR,,0.00,WeatherDisplay:10.37,2013-06-06 11:18:00,
2013-06-06 06:23:00,57.4,56.0,29.83,NNW,338,0.0,0.0,95,0.00,CLR,,0.00,WeatherDisplay:10.37,2013-06-06 11:23:00,
2013-06-06 06:28:00,57.4,56.0,29.83,NNW,338,0.0,0.0,95,0.00,CLR,,0.00,WeatherDisplay:10.37,2013-06-06 11:28:00,
2013-06-06 06:33:00,57.3,55.9,29.83,NNW,339,1.2,1.2,95,0.00,CLR,,0.00,WeatherDisplay:10.37,2013-06-06 11:33:00,
2013-06-06 06:38:00,57.3,55.9,29.83,NNW,339,0.0,0.0,95,0.00,CLR,,0.00,WeatherDisplay:10.37,2013-06-06 11:38:00,
2013-06-06 06:43:00,57.3,55.9,29.83,NNW,339,0.0,0.0,95,0.00,CLR,,0.00,WeatherDisplay:10.37,2013-06-06 11:43:00,
2013-06-06 06:48:00,57.3,55.9,29.84,NNW,339,0.0,0.0,95,0.00,CLR,,0.00,WeatherDisplay:10.37,2013-06-06 11:48:00,
2013-06-06 06:53:00,57.5,56.1,29.84,NNW,338,0.0,0.0,95,0.00,CLR,,0.00,WeatherDisplay:10.37,2013-06-06 11:53:00,
2013-06-06 06:58:00,57.7,56.3,29.84,NNW,339,1.2,1.2,95,0.00,CLR,,0.00,WeatherDisplay:10.37,2013-06-06 11:58:00,
2013-06-06 07:03:00,57.9,56.5,29.84,NNW,339,0.0,0.0,95,0.00,CLR,,0.00,WeatherDisplay:10.37,2013-06-06 12:03:00,
2013-06-06 07:08:00,58.2,56.8,29.84,NNW,338,1.2,1.2,95,0.00,CLR,,0.00,WeatherDisplay:10.37,2013-06-06 12:08:00,
2013-06-06 07:13:00,58.5,57.1,29.84,NNW,339,2.3,0.0,95,0.00,CLR,,0.00,WeatherDisplay:10.37,2013-06-06 12:13:00,
2013-06-06 07:18:00,58.7,57.0,29.83,NNW,339,3.5,3.5,94,0.00,CLR,,0.00,WeatherDisplay:10.37,2013-06-06 12:18:00,
2013-06-06 07:23:00,59.0,57.3,29.83,NNW,338,1.0,0.0,94,0.00,CLR,,0.00,WeatherDisplay:10.37,2013-06-06 12:23:00,
2013-06-06 07:28:00,59.0,57.3,29.83,NNW,339,3.5,3.5,94,0.00,CLR,,0.00,WeatherDisplay:10.37,2013-06-06 12:28:00,
2013-06-06 07:33:00,59.3,57.3,29.83,NNW,338,1.0,0.0,93,0.00,CLR,,0.00,WeatherDisplay:10.37,2013-06-06 12:33:00,
2013-06-06 07:38:00,59.5,57.2,29.84,NNW,338,1.2,1.2,92,0.00,CLR,,0.00,WeatherDisplay:10.37,2013-06-06 12:38:00,
2013-06-06 07:43:00,59.8,57.5,29.84,NNW,338,1.2,0.0,92,0.00,CLR,,0.00,WeatherDisplay:10.37,2013-06-06 12:43:00,
2013-06-06 07:48:00,59.9,57.3,29.85,NNW,339,0.0,0.0,91,0.00,CLR,,0.00,WeatherDisplay:10.37,2013-06-06 12:48:00,
2013-06-06 07:53:00,60.0,57.1,29.85,NNW,339,3.5,3.5,90,0.00,CLR,,0.00,WeatherDisplay:10.37,2013-06-06 12:53:00,
2013-06-06 07:58:00,60.3,57.4,29.85,NNW,338,0.0,0.0,90,0.00,CLR,,0.00,WeatherDisplay:10.37,2013-06-06 12:58:00,
2013-06-06 08:03:00,60.5,57.2,29.85,NNW,339,1.2,1.2,89,0.00,CLR,,0.00,WeatherDisplay:10.37,2013-06-06 13:03:00,
2013-06-06 08:08:00,60.7,57.1,29.85,NNW,339,0.0,0.1,88,0.00,CLR,,0.00,WeatherDisplay:10.37,2013-06-06 13:08:00,
2013-06-06 08:13:00,61.0,57.4,29.84,NNW,338,2.3,2.3,88,0.00,CLR,,0.00,WeatherDisplay:10.37,2013-06-06 13:13:00,
2013-06-06 08:18:00,61.2,57.0,29.85,NNW,338,2.3,2.3,86,0.00,CLR,,0.00,WeatherDisplay:10.37,2013-06-06 13:18:00,
2013-06-06 08:23:00,61.6,57.4,29.85,NNW,338,2.3,2.3,86,0.00,CLR,,0.00,WeatherDisplay:10.37,2013-06-06 13:23:00,
2013-06-06 08:28:00,61.9,57.3,29.85,NNW,338,3.5,3.5,85,0.00,CLR,,0.00,WeatherDisplay:10.37,2013-06-06 13:28:00,
2013-06-06 08:33:00,62.3,57.4,29.85,NNW,338,3.5,0.0,84,0.00,CLR,,0.00,WeatherDisplay:10.37,2013-06-06 13:33:00,
2013-06-06 08:38:00,62.7,57.1,29.84,NNW,339,2.3,2.3,82,0.00,CLR,,0.00,WeatherDisplay:10.37,2013-06-06 13:38:00,
2013-06-06 08:43:00,63.1,56.8,29.84,NNW,339,3.5,0.0,80,0.00,CLR,,0.00,WeatherDisplay:10.37,2013-06-06 13:43:00,
2013-06-06 08:48:00,63.6,57.3,29.85,NNW,339,3.5,3.5,80,0.00,CLR,,0.00,WeatherDisplay:10.37,2013-06-06 13:48:00,
2013-06-06 08:53:00,64.1,57.1,29.85,NNW,339,3.5,3.5,78,0.00,CLR,,0.00,WeatherDisplay:10.37,2013-06-06 13:53:00,
2013-06-06 08:58:00,64.5,57.1,29.85,NNW,338,3.5,3.5,77,0.00,CLR,,0.00,WeatherDisplay:10.37,2013-06-06 13:58:00,
2013-06-06 09:03:00,65.1,57.3,29.85,NNW,338,3.5,3.5,76,0.00,CLR,,0.00,WeatherDisplay:10.37,2013-06-06 14:03:00,
2013-06-06 09:09:00,65.5,56.6,29.85,NNW,339,4.6,4.6,73,0.00,CLR,,0.00,WeatherDisplay:10.37,2013-06-06 14:09:00,
2013-06-06 09:14:00,65.4,56.5,29.85,NNW,339,2.3,2.3,73,0.00,CLR,,0.00,WeatherDisplay:10.37,2013-06-06 14:14:00,
2013-06-06 09:19:00,65.7,57.2,29.85,NNW,339,2.3,2.3,74,0.00,CLR,,0.00,WeatherDisplay:10.37,2013-06-06 14:19:00,
2013-06-06 09:24:00,66.1,56.8,29.85,NNW,338,3.5,3.5,72,0.00,CLR,,0.00,WeatherDisplay:10.37,2013-06-06 14:24:00,
2013-06-06 09:29:00,66.3,56.6,29.84,NNW,338,3.5,3.5,71,0.00,CLR,,0.00,WeatherDisplay:10.37,2013-06-06 14:29:00,
2013-06-06 09:34:00,66.3,56.6,29.84,NNW,338,2.3,2.3,71,0.00,CLR,,0.00,WeatherDisplay:10.37,2013-06-06 14:34:00,
2013-06-06 09:39:00,66.7,57.0,29.84,NNW,339,2.3,2.3,71,0.00,CLR,,0.00,WeatherDisplay:10.37,2013-06-06 14:39:00,
2013-06-06 09:44:00,67.3,57.2,29.84,NNW,339,3.5,3.5,70,0.00,CLR,,0.00,WeatherDisplay:10.37,2013-06-06 14:44:00,
2013-06-06 09:49:00,68.0,57.4,29.84,NNW,339,2.3,2.3,69,0.00,CLR,,0.00,WeatherDisplay:10.37,2013-06-06 14:49:00,
2013-06-06 09:54:00,68.5,57.1,29.83,NNW,339,0.0,0.0,67,0.00,CLR,,0.00,WeatherDisplay:10.37,2013-06-06 14:54:00,
2013-06-06 09:59:00,68.4,56.6,29.83,NNW,339,2.3,2.3,66,0.00,CLR,,0.00,WeatherDisplay:10.37,2013-06-06 14:59:00,
2013-06-06 10:04:00,68.6,57.6,29.83,NNW,338,1.2,1.2,68,0.00,CLR,,0.00,WeatherDisplay:10.37,2013-06-06 15:04:00,
2013-06-06 10:09:00,68.9,57.5,29.83,NNW,339,0.0,0.0,67,0.00,CLR,,0.00,WeatherDisplay:10.37,2013-06-06 15:09:00,
2013-06-06 10:14:00,69.1,56.0,29.83,NNW,339,4.6,4.6,63,0.00,CLR,,0.00,WeatherDisplay:10.37,2013-06-06 15:14:00,
2013-06-06 10:19:00,69.0,56.3,29.83,NNW,339,3.0,3.0,64,0.00,CLR,,0.00,WeatherDisplay:10.37,2013-06-06 15:19:00,
2013-06-06 10:24:00,69.1,56.0,29.83,NNW,339,3.5,3.5,63,0.00,CLR,,0.00,WeatherDisplay:10.37,2013-06-06 15:24:00,
2013-06-06 10:29:00,69.2,55.6,29.83,NNW,339,5.8,5.8,62,0.00,CLR,,0.00,WeatherDisplay:10.37,2013-06-06 15:29:00,
2013-06-06 10:34:00,69.3,55.7,29.83,NNW,339,2.0,2.0,62,0.00,CLR,,0.00,WeatherDisplay:10.37,2013-06-06 15:34:00,
2013-06-06 10:39:00,69.2,55.2,29.83,NNW,338,3.5,3.5,61,0.00,CLR,,0.00,WeatherDisplay:10.37,2013-06-06 15:39:00,
2013-06-06 10:44:00,69.1,55.5,29.83,NNW,338,3.5,3.5,62,0.00,CLR,,0.00,WeatherDisplay:10.37,2013-06-06 15:44:00,
2013-06-06 10:49:00,69.5,56.3,29.83,NNW,339,5.8,0.0,63,0.00,CLR,,0.00,WeatherDisplay:10.37,2013-06-06 15:49:00,
2013-06-06 10:54:00,70.2,56.1,29.83,NNW,339,2.0,2.0,61,0.00,CLR,,0.00,WeatherDisplay:10.37,2013-06-06 15:54:00,
2013-06-06 10:59:00,70.6,56.5,29.83,NNW,339,4.0,4.0,61,0.00,CLR,,0.00,WeatherDisplay:10.37,2013-06-06 15:59:00,
2013-06-06 11:04:00,70.2,54.7,29.83,NNW,339,5.8,5.8,58,0.00,CLR,,0.00,WeatherDisplay:10.37,2013-06-06 16:04:00,
2013-06-06 11:09:00,70.3,54.3,29.83,NNW,339,8.1,8.1,57,0.00,CLR,,0.00,WeatherDisplay:10.37,2013-06-06 16:09:00,
2013-06-06 11:14:00,70.6,55.6,29.83,NNW,335,6.0,6.0,59,0.00,CLR,,0.00,WeatherDisplay:10.37,2013-06-06 16:14:00,
2013-06-06 11:19:00,71.3,56.2,29.83,NNW,331,4.6,4.6,59,0.00,CLR,,0.00,WeatherDisplay:10.37,2013-06-06 16:19:00,
2013-06-06 11:24:00,71.8,56.7,29.83,NNW,332,2.3,2.3,59,0.00,CLR,,0.00,WeatherDisplay:10.37,2013-06-06 16:24:00,
2013-06-06 11:29:00,71.6,55.1,29.83,NNW,330,3.5,3.5,56,0.00,CLR,,0.00,WeatherDisplay:10.37,2013-06-06 16:29:00,
2013-06-06 11:34:00,71.3,55.3,29.84,NNW,330,3.5,3.5,57,0.00,CLR,,0.00,WeatherDisplay:10.37,2013-06-06 16:34:00,
2013-06-06 11:39:00,71.4,55.4,29.84,NNW,330,10.4,10.4,57,0.00,CLR,,0.00,WeatherDisplay:10.37,2013-06-06 16:39:00,
2013-06-06 11:44:00,71.2,55.2,29.84,NNW,331,2.3,2.3,57,0.00,CLR,,0.00,WeatherDisplay:10.37,2013-06-06 16:44:00,
2013-06-06 11:49:00,71.7,55.7,29.83,NNW,331,2.3,2.9,57,0.00,CLR,,0.00,WeatherDisplay:10.37,2013-06-06 16:49:00,
2013-06-06 11:54:00,71.9,55.8,29.83,NNW,331,2.3,2.3,57,0.00,CLR,,0.00,WeatherDisplay:10.37,2013-06-06 16:54:00,
2013-06-06 11:59:00,72.1,56.0,29.84,NNW,331,3.5,3.5,57,0.00,CLR,,0.00,WeatherDisplay:10.37,2013-06-06 16:59:00,
2013-06-06 12:04:00,72.7,56.6,29.84,NNW,330,3.5,3.5,57,0.00,CLR,,0.00,WeatherDisplay:10.37,2013-06-06 17:04:00,
2013-06-06 12:09:00,72.6,55.5,29.84,NNW,331,5.8,5.8,55,0.00,CLR,,0.00,WeatherDisplay:10.37,2013-06-06 17:09:00,
2013-06-06 12:14:00,72.1,55.5,29.84,NNW,332,2.3,2.3,56,0.00,CLR,,0.00,WeatherDisplay:10.37,2013-06-06 17:14:00,
2013-06-06 12:19:00,72.3,55.7,29.84,NNW,331,6.9,6.9,56,0.00,CLR,,0.00,WeatherDisplay:10.37,2013-06-06 17:19:00,
2013-06-06 12:24:00,72.6,56.5,29.84,NNW,331,2.3,2.3,57,0.00,CLR,,0.00,WeatherDisplay:10.37,2013-06-06 17:24:00,
2013-06-06 12:29:00,73.1,56.0,29.84,NNW,330,2.3,2.3,55,0.00,CLR,,0.00,WeatherDisplay:10.37,2013-06-06 17:29:00,
2013-06-06 12:34:00,72.9,54.8,29.84,NNW,334,4.6,4.6,53,0.00,CLR,,0.00,WeatherDisplay:10.37,2013-06-06 17:34:00,
2013-06-06 12:39:00,72.4,54.8,29.84,North,355,3.5,3.5,54,0.00,CLR,,0.00,WeatherDisplay:10.37,2013-06-06 17:39:00,
2013-06-06 12:44:00,72.7,55.1,29.84,North,350,3.5,3.5,54,0.00,CLR,,0.00,WeatherDisplay:10.37,2013-06-06 17:44:00,
2013-06-06 12:49:00,72.5,54.9,29.83,NNW,348,3.5,3.5,54,0.00,CLR,,0.00,WeatherDisplay:10.37,2013-06-06 17:49:00,
2013-06-06 12:54:00,72.1,56.0,29.83,NNW,348,1.2,1.2,57,0.00,CLR,,0.00,WeatherDisplay:10.37,2013-06-06 17:54:00,
2013-06-06 12:59:00,71.7,55.7,29.84,NNW,348,3.5,3.5,57,0.00,CLR,,0.00,WeatherDisplay:10.37,2013-06-06 17:59:00,
2013-06-06 13:04:00,70.9,55.4,29.84,NNW,348,0.0,0.0,58,0.00,CLR,,0.00,WeatherDisplay:10.37,2013-06-06 18:04:00,
2013-06-06 13:09:00,71.1,56.5,29.83,NNW,348,3.5,3.5,60,0.00,CLR,,0.00,WeatherDisplay:10.37,2013-06-06 18:09:00,
2013-06-06 13:14:00,71.6,55.6,29.83,North,355,1.2,1.2,57,0.00,CLR,,0.00,WeatherDisplay:10.37,2013-06-06 18:14:00,
2013-06-06 13:19:00,71.5,55.9,29.83,North,355,2.3,2.3,58,0.00,CLR,,0.00,WeatherDisplay:10.37,2013-06-06 18:19:00,
2013-06-06 13:24:00,71.3,56.7,29.83,North,350,2.3,2.3,60,0.00,CLR,,0.00,WeatherDisplay:10.37,2013-06-06 18:24:00,
2013-06-06 13:29:00,71.3,56.7,29.83,North,350,3.5,3.5,60,0.00,CLR,,0.00,WeatherDisplay:10.37,2013-06-06 18:29:00,
2013-06-06 13:34:00,71.3,56.2,29.82,North,349,3.5,3.5,59,0.00,CLR,,0.00,WeatherDisplay:10.37,2013-06-06 18:34:00,
2013-06-06 13:39:00,72.1,56.5,29.82,NNW,348,3.5,3.5,58,0.00,CLR,,0.00,WeatherDisplay:10.37,2013-06-06 18:39:00,
2013-06-06 13:44:00,72.8,56.7,29.82,NNW,348,9.0,9.0,57,0.00,CLR,,0.00,WeatherDisplay:10.37,2013-06-06 18:44:00,
2013-06-06 13:49:00,73.3,57.6,29.82,NNW,348,0.0,0.0,58,0.00,CLR,,0.00,WeatherDisplay:10.37,2013-06-06 18:49:00,
2013-06-06 13:54:00,73.4,57.2,29.82,NNW,346,5.8,5.8,57,0.00,CLR,,0.00,WeatherDisplay:10.37,2013-06-06 18:54:00,
2013-06-06 13:59:00,73.2,57.1,29.82,NNW,345,9.2,9.2,57,0.00,CLR,,0.00,WeatherDisplay:10.37,2013-06-06 18:59:00,
2013-06-06 14:04:00,72.9,56.3,29.83,NNW,341,6.0,6.0,56,0.00,CLR,,0.00,WeatherDisplay:10.37,2013-06-06 19:04:00,
2013-06-06 14:09:00,72.6,55.5,29.82,NNW,342,3.5,3.5,55,0.00,CLR,,0.00,WeatherDisplay:10.37,2013-06-06 19:09:00,
2013-06-06 14:14:00,73.5,58.3,29.82,NNW,342,5.8,5.8,59,0.00,CLR,,0.00,WeatherDisplay:10.37,2013-06-06 19:14:00,
2013-06-06 14:19:00,73.9,56.7,29.81,North,360,13.8,13.8,55,0.00,CLR,,0.00,WeatherDisplay:10.37,2013-06-06 19:19:00,
2013-06-06 14:24:00,73.5,56.8,29.82,North,5,3.5,3.5,56,0.00,CLR,,0.00,WeatherDisplay:10.37,2013-06-06 19:24:00,
2013-06-06 14:29:00,72.7,57.1,29.82,North,355,6.9,6.9,58,0.00,CLR,,0.00,WeatherDisplay:10.37,2013-06-06 19:29:00,
2013-06-06 14:34:00,72.4,57.3,29.82,NNW,338,6.9,6.9,59,0.00,CLR,,0.00,WeatherDisplay:10.37,2013-06-06 19:34:00,
2013-06-06 14:39:00,72.4,57.3,29.82,NNW,338,9.2,9.2,59,0.00,CLR,,0.00,WeatherDisplay:10.37,2013-06-06 19:39:00,
2013-06-06 14:44:00,72.5,56.4,29.82,NNW,338,3.5,3.5,57,0.00,CLR,,0.00,WeatherDisplay:10.37,2013-06-06 19:44:00,
2013-06-06 14:49:00,73.1,56.0,29.83,NNW,333,11.5,11.5,55,0.00,CLR,,0.00,WeatherDisplay:10.37,2013-06-06 19:49:00,
2013-06-06 14:54:00,73.5,56.8,29.82,NNW,333,3.5,3.5,56,0.00,CLR,,0.00,WeatherDisplay:10.37,2013-06-06 19:54:00,
2013-06-06 14:59:00,73.9,56.7,29.82,NNW,333,9.2,9.2,55,0.00,CLR,,0.00,WeatherDisplay:10.37,2013-06-06 19:59:00,
2013-06-06 15:04:00,74.4,57.2,29.82,NNW,330,6.9,6.9,55,0.00,CLR,,0.00,WeatherDisplay:10.37,2013-06-06 20:04:00,
2013-06-06 15:09:00,75.0,57.2,29.82,NNW,341,10.4,10.4,54,0.00,CLR,,0.00,WeatherDisplay:10.37,2013-06-06 20:09:00,
2013-06-06 15:14:00,74.6,56.9,29.82,NNW,343,3.5,3.5,54,0.00,CLR,,0.00,WeatherDisplay:10.37,2013-06-06 20:14:00,
2013-06-06 15:19:00,74.4,55.6,29.82,North,349,3.5,3.5,52,0.00,CLR,,0.00,WeatherDisplay:10.37,2013-06-06 20:19:00,
2013-06-06 15:24:00,74.8,56.0,29.82,NNW,348,1.2,1.2,52,0.00,CLR,,0.00,WeatherDisplay:10.37,2013-06-06 20:24:00,
2013-06-06 15:29:00,75.4,56.0,29.82,NNW,348,4.6,4.6,51,0.00,CLR,,0.00,WeatherDisplay:10.37,2013-06-06 20:29:00,
2013-06-06 15:34:00,75.0,56.2,29.81,NNW,348,3.5,3.5,52,0.00,CLR,,0.00,WeatherDisplay:10.37,2013-06-06 20:34:00,
2013-06-06 15:39:00,74.5,57.3,29.81,NNW,346,3.5,3.5,55,0.00,CLR,,0.00,WeatherDisplay:10.37,2013-06-06 20:39:00,
2013-06-06 15:44:00,75.0,58.2,29.81,NNW,342,4.6,4.6,56,0.00,CLR,,0.00,WeatherDisplay:10.37,2013-06-06 20:44:00,
2013-06-06 15:49:00,74.7,56.9,29.81,North,355,12.7,12.7,54,0.00,CLR,,0.00,WeatherDisplay:10.37,2013-06-06 20:49:00,
2013-06-06 15:54:00,74.5,57.3,29.81,North,355,3.5,3.5,55,0.00,CLR,,0.00,WeatherDisplay:10.37,2013-06-06 20:54:00,
2013-06-06 15:59:00,73.9,56.7,29.82,North,355,3.5,3.5,55,0.00,CLR,,0.00,WeatherDisplay:10.37,2013-06-06 20:59:00,
2013-06-06 16:04:00,73.6,56.9,29.81,North,355,2.3,2.3,56,0.00,CLR,,0.00,WeatherDisplay:10.37,2013-06-06 21:04:00,
2013-06-06 16:09:00,73.3,56.2,29.81,North,355,1.2,0.0,55,0.00,CLR,,0.00,WeatherDisplay:10.37,2013-06-06 21:09:00,
2013-06-06 16:14:00,73.8,57.6,29.81,NNW,347,4.0,4.0,57,0.00,CLR,,0.00,WeatherDisplay:10.37,2013-06-06 21:14:00,
2013-06-06 16:19:00,74.3,56.6,29.81,NNW,344,5.0,5.0,54,0.00,CLR,,0.00,WeatherDisplay:10.37,2013-06-06 21:19:00,
2013-06-06 16:24:00,74.3,54.5,29.80,NNW,344,6.9,6.9,50,0.00,CLR,,0.00,WeatherDisplay:10.37,2013-06-06 21:24:00,
2013-06-06 16:29:00,74.7,55.4,29.80,NNW,341,2.0,2.0,51,0.00,CLR,,0.00,WeatherDisplay:10.37,2013-06-06 21:29:00,
2013-06-06 16:34:00,75.0,56.2,29.80,NNW,341,9.2,9.2,52,0.00,CLR,,0.00,WeatherDisplay:10.37,2013-06-06 21:34:00,
2013-06-06 16:39:00,74.6,56.9,29.81,NNW,341,3.5,3.5,54,0.00,CLR,,0.00,WeatherDisplay:10.37,2013-06-06 21:39:00,
2013-06-06 16:44:00,73.5,55.8,29.81,North,355,9.2,9.2,54,0.00,CLR,,0.00,WeatherDisplay:10.37,2013-06-06 21:44:00,
2013-06-06 16:49:00,72.4,56.3,29.81,North,360,6.9,6.9,57,0.00,CLR,,0.00,WeatherDisplay:10.37,2013-06-06 21:49:00,
2013-06-06 16:54:00,72.8,57.2,29.81,North,350,3.5,3.5,58,0.00,CLR,,0.00,WeatherDisplay:10.37,2013-06-06 21:54:00,
2013-06-06 16:59:00,72.9,56.3,29.81,North,360,8.1,8.1,56,0.00,CLR,,0.00,WeatherDisplay:10.37,2013-06-06 21:59:00,
2013-06-06 17:04:00,72.2,55.6,29.81,North,360,6.9,6.9,56,0.00,CLR,,0.00,WeatherDisplay:10.37,2013-06-06 22:04:00,
2013-06-06 17:09:00,72.1,56.5,29.81,North,360,4.6,4.6,58,0.00,CLR,,0.00,WeatherDisplay:10.37,2013-06-06 22:09:00,
2013-06-06 17:14:00,72.6,56.5,29.81,North,360,11.5,11.5,57,0.00,CLR,,0.00,WeatherDisplay:10.37,2013-06-06 22:14:00,
2013-06-06 17:19:00,72.6,56.0,29.81,North,360,10.4,10.4,56,0.00,CLR,,0.00,WeatherDisplay:10.37,2013-06-06 22:19:00,
2013-06-06 17:24:00,72.7,57.5,29.80,North,360,3.5,3.5,59,0.00,CLR,,0.00,WeatherDisplay:10.37,2013-06-06 22:24:00,
2013-06-06 17:29:00,73.1,57.0,29.80,North,9,10.4,10.4,57,0.00,CLR,,0.00,WeatherDisplay:10.37,2013-06-06 22:29:00,
2013-06-06 17:34:00,73.4,57.2,29.80,North,9,6.0,6.0,57,0.00,CLR,,0.00,WeatherDisplay:10.37,2013-06-06 22:34:00,
2013-06-06 17:39:00,73.3,57.1,29.80,North,355,3.0,3.0,57,0.00,CLR,,0.00,WeatherDisplay:10.37,2013-06-06 22:39:00,
2013-06-06 17:44:00,73.3,56.7,29.80,North,355,4.6,4.6,56,0.00,CLR,,0.00,WeatherDisplay:10.37,2013-06-06 22:44:00,
2013-06-06 17:49:00,73.2,56.1,29.80,NNE,21,11.5,11.5,55,0.00,CLR,,0.00,WeatherDisplay:10.37,2013-06-06 22:49:00,
2013-06-06 17:54:00,72.7,55.1,29.80,North,10,11.5,11.5,54,0.00,CLR,,0.00,WeatherDisplay:10.37,2013-06-06 22:54:00,
2013-06-06 17:59:00,72.5,56.4,29.80,North,9,5.8,5.8,57,0.00,CLR,,0.00,WeatherDisplay:10.37,2013-06-06 22:59:00,
2013-06-06 18:04:00,72.4,56.3,29.80,North,10,5.8,5.8,57,0.00,CLR,,0.00,WeatherDisplay:10.37,2013-06-06 23:04:00,
2013-06-06 18:09:00,72.5,56.4,29.80,North,9,5.0,5.0,57,0.00,CLR,,0.00,WeatherDisplay:10.37,2013-06-06 23:09:00,
2013-06-06 18:14:00,72.5,54.4,29.80,North,5,7.0,7.0,53,0.00,CLR,,0.00,WeatherDisplay:10.37,2013-06-06 23:14:00,
2013-06-06 18:19:00,72.4,53.2,29.80,North,5,3.5,3.5,51,0.00,CLR,,0.00,WeatherDisplay:10.37,2013-06-06 23:19:00,
2013-06-06 18:24:00,72.4,54.3,29.80,North,360,3.5,3.5,53,0.00,CLR,,0.00,WeatherDisplay:10.37,2013-06-06 23:24:00,
2013-06-06 18:29:00,72.3,55.2,29.80,North,355,3.5,3.5,55,0.00,CLR,,0.00,WeatherDisplay:10.37,2013-06-06 23:29:00,
2013-06-06 18:34:00,72.3,55.2,29.80,North,355,3.5,3.5,55,0.00,CLR,,0.00,WeatherDisplay:10.37,2013-06-06 23:34:00,
2013-06-06 18:39:00,72.2,55.6,29.80,NNW,346,3.5,3.5,56,0.00,CLR,,0.00,WeatherDisplay:10.37,2013-06-06 23:39:00,
2013-06-06 18:44:00,72.1,55.5,29.79,NNW,346,3.5,3.5,56,0.00,CLR,,0.00,WeatherDisplay:10.37,2013-06-06 23:44:00,
2013-06-06 18:49:00,72.1,55.5,29.80,NNW,346,6.9,6.9,56,0.00,CLR,,0.00,WeatherDisplay:10.37,2013-06-06 23:49:00,
2013-06-06 18:54:00,72.1,55.5,29.80,NNW,345,5.8,5.8,56,0.00,CLR,,0.00,WeatherDisplay:10.37,2013-06-06 23:54:00,
2013-06-06 18:59:00,72.1,56.5,29.80,NNW,345,4.6,4.6,58,0.00,CLR,,0.00,WeatherDisplay:10.37,2013-06-06 23:59:00,
2013-06-06 19:04:00,71.8,56.2,29.80,NNW,345,3.5,3.5,58,0.00,CLR,,0.00,WeatherDisplay:10.37,2013-06-07 00:04:00,
2013-06-06 19:09:00,71.5,56.4,29.80,NNW,345,3.5,3.5,59,0.00,CLR,,0.00,WeatherDisplay:10.37,2013-06-07 00:09:00,
2013-06-06 19:14:00,71.3,57.2,29.80,NNW,345,5.8,5.8,61,0.00,CLR,,0.00,WeatherDisplay:10.37,2013-06-07 00:14:00,
2013-06-06 19:19:00,71.0,56.4,29.80,NNW,346,2.3,2.3,60,0.00,CLR,,0.00,WeatherDisplay:10.37,2013-06-07 00:19:00,
2013-06-06 19:24:00,70.8,56.2,29.80,NNW,346,5.0,5.0,60,0.00,CLR,,0.00,WeatherDisplay:10.37,2013-06-07 00:24:00,
2013-06-06 19:29:00,70.6,56.5,29.80,NNW,345,3.5,3.5,61,0.00,CLR,,0.00,WeatherDisplay:10.37,2013-06-07 00:29:00,
2013-06-06 19:34:00,70.5,56.4,29.80,NNW,346,3.5,3.5,61,0.00,CLR,,0.00,WeatherDisplay:10.37,2013-06-07 00:34:00,
2013-06-06 19:39:00,70.5,56.9,29.80,NNW,346,6.9,6.9,62,0.00,CLR,,0.00,WeatherDisplay:10.37,2013-06-07 00:39:00,
2013-06-06 19:44:00,70.4,56.3,29.80,NNW,345,2.3,2.3,61,0.00,CLR,,0.00,WeatherDisplay:10.37,2013-06-07 00:44:00,
2013-06-06 19:49:00,70.3,56.2,29.81,NNW,346,4.6,4.6,61,0.00,CLR,,0.00,WeatherDisplay:10.37,2013-06-07 00:49:00,
2013-06-06 19:54:00,70.2,56.1,29.81,NNW,346,1.2,1.2,61,0.00,CLR,,0.00,WeatherDisplay:10.37,2013-06-07 00:54:00,
2013-06-06 19:59:00,70.1,56.0,29.81,NNW,346,4.0,4.0,61,0.00,CLR,,0.00,WeatherDisplay:10.37,2013-06-07 00:59:00,
2013-06-06 20:04:00,69.9,55.8,29.80,NNW,346,3.5,3.5,61,0.00,CLR,,0.00,WeatherDisplay:10.37,2013-06-07 01:04:00,
2013-06-06 20:09:00,69.8,55.7,29.81,NNW,346,1.2,1.2,61,0.00,CLR,,0.00,WeatherDisplay:10.37,2013-06-07 01:09:00,
2013-06-06 20:14:00,69.6,55.6,29.81,NNW,345,3.5,3.5,61,0.00,CLR,,0.00,WeatherDisplay:10.37,2013-06-07 01:14:00,
2013-06-06 20:19:00,69.5,55.5,29.81,NNW,345,2.3,2.3,61,0.00,CLR,,0.00,WeatherDisplay:10.37,2013-06-07 01:19:00,
2013-06-06 20:24:00,69.3,55.3,29.81,NNW,346,3.5,3.5,61,0.00,CLR,,0.00,WeatherDisplay:10.37,2013-06-07 01:24:00,
2013-06-06 20:29:00,69.1,55.1,29.81,NNW,346,2.0,2.0,61,0.00,CLR,,0.00,WeatherDisplay:10.37,2013-06-07 01:29:00,
2013-06-06 20:34:00,68.9,54.9,29.81,NNW,346,2.3,2.3,61,0.00,CLR,,0.00,WeatherDisplay:10.37,2013-06-07 01:34:00,
2013-06-06 20:39:00,68.6,55.1,29.81,NNW,346,0.0,0.0,62,0.00,CLR,,0.00,WeatherDisplay:10.37,2013-06-07 01:39:00,
2013-06-06 20:44:00,68.4,55.3,29.81,NNW,346,1.2,1.2,63,0.00,CLR,,0.00,WeatherDisplay:10.37,2013-06-07 01:44:00,
2013-06-06 20:49:00,68.1,55.0,29.81,NNW,345,1.0,1.0,63,0.00,CLR,,0.00,WeatherDisplay:10.37,2013-06-07 01:49:00,
2013-06-06 20:54:00,67.9,55.3,29.81,NNW,346,1.2,1.2,64,0.00,CLR,,0.00,WeatherDisplay:10.37,2013-06-07 01:54:00,
2013-06-06 20:59:00,67.6,55.4,29.81,NNW,345,2.3,2.3,65,0.00,CLR,,0.00,WeatherDisplay:10.37,2013-06-07 01:59:00,
2013-06-06 21:04:00,67.3,55.1,29.81,NNW,346,0.0,0.0,65,0.00,CLR,,0.00,WeatherDisplay:10.37,2013-06-07 02:04:00,
2013-06-06 21:09:00,67.0,55.3,29.81,NNW,346,0.0,0.0,66,0.00,CLR,,0.00,WeatherDisplay:10.37,2013-06-07 02:09:00,
2013-06-06 21:14:00,66.6,54.9,29.81,NNW,345,0.0,0.0,66,0.00,CLR,,0.00,WeatherDisplay:10.37,2013-06-07 02:14:00,
2013-06-06 21:19:00,66.3,55.0,29.81,NNW,346,0.0,0.0,67,0.00,CLR,,0.00,WeatherDisplay:10.37,2013-06-07 02:19:00,
2013-06-06 21:24:00,65.9,55.0,29.82,NNW,346,0.0,0.0,68,0.00,CLR,,0.00,WeatherDisplay:10.37,2013-06-07 02:24:00,
2013-06-06 21:29:00,65.6,55.2,29.82,NNW,345,0.0,0.0,69,0.00,CLR,,0.00,WeatherDisplay:10.37,2013-06-07 02:29:00,
2013-06-06 21:34:00,65.1,54.7,29.82,NNW,345,0.0,0.0,69,0.00,CLR,,0.00,WeatherDisplay:10.37,2013-06-07 02:34:00,
2013-06-06 21:39:00,64.8,54.8,29.83,NNW,346,0.0,0.0,70,0.00,CLR,,0.00,WeatherDisplay:10.37,2013-06-07 02:39:00,
2013-06-06 21:44:00,64.5,54.9,29.83,NNW,345,0.0,0.0,71,0.00,CLR,,0.00,WeatherDisplay:10.37,2013-06-07 02:44:00,
2013-06-06 21:50:00,64.2,54.6,29.83,NNW,346,0.0,0.0,71,0.00,CLR,,0.00,WeatherDisplay:10.37,2013-06-07 02:50:00,
2013-06-06 21:55:00,63.9,54.7,29.83,NNW,346,0.0,0.0,72,0.00,CLR,,0.00,WeatherDisplay:10.37,2013-06-07 02:55:00,
2013-06-06 22:00:00,63.7,54.5,29.83,NNW,346,0.0,0.0,72,0.00,CLR,,0.00,WeatherDisplay:10.37,2013-06-07 03:00:00,
2013-06-06 22:05:00,63.5,54.3,29.83,NNW,345,0.0,0.0,72,0.00,CLR,,0.00,WeatherDisplay:10.37,2013-06-07 03:05:00,
2013-06-06 22:10:00,63.5,54.3,29.84,NNW,345,0.0,0.0,72,0.00,CLR,,0.00,WeatherDisplay:10.37,2013-06-07 03:10:00,
2013-06-06 22:15:00,63.5,54.3,29.84,NNW,345,0.0,0.0,72,0.00,CLR,,0.00,WeatherDisplay:10.37,2013-06-07 03:15:00,
2013-06-06 22:20:00,63.4,54.2,29.84,NNW,345,0.0,0.0,72,0.00,CLR,,0.00,WeatherDisplay:10.37,2013-06-07 03:20:00,
2013-06-06 22:25:00,63.2,54.4,29.84,NNW,346,0.0,0.0,73,0.00,CLR,,0.00,WeatherDisplay:10.37,2013-06-07 03:25:00,
2013-06-06 22:30:00,63.1,54.3,29.84,NNW,345,0.0,0.0,73,0.00,CLR,,0.00,WeatherDisplay:10.37,2013-06-07 03:30:00,
2013-06-06 22:35:00,63.0,54.2,29.84,NNW,346,0.0,0.0,73,0.00,CLR,,0.00,WeatherDisplay:10.37,2013-06-07 03:35:00,
2013-06-06 22:40:00,62.9,54.1,29.84,NNW,346,0.0,0.0,73,0.00,CLR,,0.00,WeatherDisplay:10.37,2013-06-07 03:40:00,
2013-06-06 22:45:00,62.7,54.3,29.84,NNW,345,0.0,0.0,74,0.00,CLR,,0.00,WeatherDisplay:10.37,2013-06-07 03:45:00,
2013-06-06 22:50:00,62.5,54.5,29.84,NNW,346,0.0,0.0,75,0.00,CLR,,0.00,WeatherDisplay:10.37,2013-06-07 03:50:00,
2013-06-06 22:55:00,62.3,54.6,29.84,NNW,345,0.0,0.0,76,0.00,CLR,,0.00,WeatherDisplay:10.37,2013-06-07 03:55:00,
2013-06-06 23:00:00,62.0,54.3,29.84,NNW,345,0.0,0.0,76,0.00,CLR,,0.00,WeatherDisplay:10.37,2013-06-07 04:00:00,
2013-06-06 23:01:00,61.9,54.2,29.84,NNW,346,0.0,0.0,76,0.00,CLR,,0.00,WeatherDisplay:10.37,2013-06-07 04:01:00,
2013-06-06 23:02:00,61.8,54.2,29.84,NNW,346,0.0,0.0,76,0.00,CLR,,0.00,WeatherDisplay:10.37,2013-06-07 04:02:00,
2013-06-06 23:07:00,61.4,54.5,29.84,NNW,346,0.0,0.0,78,0.00,CLR,,0.00,WeatherDisplay:10.37,2013-06-07 04:07:00,
2013-06-06 23:12:00,61.1,54.5,29.84,NNW,345,0.0,0.0,79,0.00,CLR,,0.00,WeatherDisplay:10.37,2013-06-07 04:12:00,
2013-06-06 23:17:00,60.9,54.3,29.84,NNW,346,0.0,0.0,79,0.00,CLR,,0.00,WeatherDisplay:10.37,2013-06-07 04:17:00,
2013-06-06 23:22:00,60.7,54.5,29.84,NNW,345,0.0,0.0,80,0.00,CLR,,0.00,WeatherDisplay:10.37,2013-06-07 04:22:00,
2013-06-06 23:27:00,60.4,54.2,29.84,NNW,345,0.0,0.0,80,0.00,CLR,,0.00,WeatherDisplay:10.37,2013-06-07 04:27:00,
2013-06-06 23:32:00,60.1,54.2,29.84,NNW,346,0.0,0.0,81,0.00,CLR,,0.00,WeatherDisplay:10.37,2013-06-07 04:32:00,
2013-06-06 23:37:00,60.0,54.5,29.84,NNW,346,0.0,0.0,82,0.00,CLR,,0.00,WeatherDisplay:10.37,2013-06-07 04:37:00,
2013-06-06 23:42:00,59.9,54.4,29.84,NNW,346,0.0,0.0,82,0.00,CLR,,0.00,WeatherDisplay:10.37,2013-06-07 04:42:00,
2013-06-06 23:47:00,59.8,54.3,29.84,NNW,346,0.0,0.0,82,0.00,CLR,,0.00,WeatherDisplay:10.37,2013-06-07 04:47:00,
2013-06-06 23:52:00,59.7,54.5,29.84,NNW,345,0.0,0.0,83,0.00,CLR,,0.00,WeatherDisplay:10.37,2013-06-07 04:52:00,
2013-06-06 23:57:00,59.5,54.3,29.84,NNW,345,0.0,0.0,83,0.00,CLR,,0.00,WeatherDisplay:10.37,2013-06-07 04:57:00,